sensor_id;sensor_type;location;lat;lon;timestamp;temperature;humidity
13591;DHT22;6866;50.778;7.206;2022-11-15T00:01:45;9.90;99.90
13591;DHT22;6866;50.778;7.206;2022-11-15T00:04:10;9.90;99.90
13591;DHT22;6866;50.778;7.206;2022-11-15T00:06:36;10.00;99.90
13591;DHT22;6866;50.778;7.206;2022-11-15T00:09:02;10.00;99.90
13591;DHT22;6866;50.778;7.206;2022-11-15T00:11:28;10.00;99.90
13591;DHT22;6866;50.778;7.206;2022-11-15T00:13:57;10.00;99.90
13591;DHT22;6866;50.778;7.206;2022-11-15T00:16:24;10.00;99.90
13591;DHT22;6866;50.778;7.206;2022-11-15T00:18:50;10.00;99.90
13591;DHT22;6866;50.778;7.206;2022-11-15T00:21:16;10.10;99.90
13591;DHT22;6866;50.778;7.206;2022-11-15T00:23:42;10.10;99.90
13591;DHT22;6866;50.778;7.206;2022-11-15T00:26:11;10.10;99.90
13591;DHT22;6866;50.778;7.206;2022-11-15T00:28:37;10.10;99.90
13591;DHT22;6866;50.778;7.206;2022-11-15T00:31:05;10.20;99.90
13591;DHT22;6866;50.778;7.206;2022-11-15T00:33:33;10.30;99.90
13591;DHT22;6866;50.778;7.206;2022-11-15T00:36:06;10.30;99.90
13591;DHT22;6866;50.778;7.206;2022-11-15T00:38:33;10.40;99.90
13591;DHT22;6866;50.778;7.206;2022-11-15T00:40:59;10.40;99.90
13591;DHT22;6866;50.778;7.206;2022-11-15T00:43:25;10.40;99.90
13591;DHT22;6866;50.778;7.206;2022-11-15T00:45:50;10.40;99.90
13591;DHT22;6866;50.778;7.206;2022-11-15T00:48:16;10.40;99.90
13591;DHT22;6866;50.778;7.206;2022-11-15T00:50:41;10.40;99.90
13591;DHT22;6866;50.778;7.206;2022-11-15T00:53:07;10.40;99.90
13591;DHT22;6866;50.778;7.206;2022-11-15T00:55:32;10.50;99.90
13591;DHT22;6866;50.778;7.206;2022-11-15T00:57:58;10.50;99.90
13591;DHT22;6866;50.778;7.206;2022-11-15T01:00:23;10.50;99.90
13591;DHT22;6866;50.778;7.206;2022-11-15T01:02:49;10.60;99.90
13591;DHT22;6866;50.778;7.206;2022-11-15T01:05:15;10.60;99.90
13591;DHT22;6866;50.778;7.206;2022-11-15T01:07:40;10.60;99.90
13591;DHT22;6866;50.778;7.206;2022-11-15T01:10:06;10.70;99.90
13591;DHT22;6866;50.778;7.206;2022-11-15T01:12:32;10.70;99.90
13591;DHT22;6866;50.778;7.206;2022-11-15T01:14:57;10.70;99.90
13591;DHT22;6866;50.778;7.206;2022-11-15T01:17:23;10.70;99.90
13591;DHT22;6866;50.778;7.206;2022-11-15T01:19:48;10.80;99.90
13591;DHT22;6866;50.778;7.206;2022-11-15T01:22:14;10.80;99.90
13591;DHT22;6866;50.778;7.206;2022-11-15T01:24:40;10.90;99.90
13591;DHT22;6866;50.778;7.206;2022-11-15T01:27:05;10.90;99.90
13591;DHT22;6866;50.778;7.206;2022-11-15T01:29:31;10.90;99.90
13591;DHT22;6866;50.778;7.206;2022-11-15T01:31:56;10.90;99.90
13591;DHT22;6866;50.778;7.206;2022-11-15T01:34:22;10.90;99.90
13591;DHT22;6866;50.778;7.206;2022-11-15T01:36:47;10.90;99.90
13591;DHT22;6866;50.778;7.206;2022-11-15T01:39:13;11.00;99.90
13591;DHT22;6866;50.778;7.206;2022-11-15T01:41:38;11.00;99.90
13591;DHT22;6866;50.778;7.206;2022-11-15T01:44:43;11.00;99.90
13591;DHT22;6866;50.778;7.206;2022-11-15T01:47:13;11.10;99.90
13591;DHT22;6866;50.778;7.206;2022-11-15T01:50:09;11.10;99.90
13591;DHT22;6866;50.778;7.206;2022-11-15T01:52:33;11.10;99.90
13591;DHT22;6866;50.778;7.206;2022-11-15T01:57:45;11.10;99.90
13591;DHT22;6866;50.778;7.206;2022-11-15T02:05:23;11.10;99.90
13591;DHT22;6866;50.778;7.206;2022-11-15T02:07:49;11.10;99.90
13591;DHT22;6866;50.778;7.206;2022-11-15T02:10:20;11.10;99.90
13591;DHT22;6866;50.778;7.206;2022-11-15T02:12:46;11.10;99.90
13591;DHT22;6866;50.778;7.206;2022-11-15T02:15:13;11.10;99.90
13591;DHT22;6866;50.778;7.206;2022-11-15T02:20:39;11.10;99.90
13591;DHT22;6866;50.778;7.206;2022-11-15T02:26:28;11.00;99.90
13591;DHT22;6866;50.778;7.206;2022-11-15T02:29:12;11.10;99.90
13591;DHT22;6866;50.778;7.206;2022-11-15T02:31:48;11.10;99.90
13591;DHT22;6866;50.778;7.206;2022-11-15T02:34:34;11.10;99.90
13591;DHT22;6866;50.778;7.206;2022-11-15T02:39:51;11.10;99.90
13591;DHT22;6866;50.778;7.206;2022-11-15T02:42:23;11.10;99.90
13591;DHT22;6866;50.778;7.206;2022-11-15T02:45:12;11.20;99.90
13591;DHT22;6866;50.778;7.206;2022-11-15T02:47:43;11.20;99.90
13591;DHT22;6866;50.778;7.206;2022-11-15T02:50:12;11.30;99.90
13591;DHT22;6866;50.778;7.206;2022-11-15T02:52:38;11.40;99.90
13591;DHT22;6866;50.778;7.206;2022-11-15T02:55:04;11.50;99.90
13591;DHT22;6866;50.778;7.206;2022-11-15T03:00:27;11.70;99.90
13591;DHT22;6866;50.778;7.206;2022-11-15T03:03:08;11.80;99.90
13591;DHT22;6866;50.778;7.206;2022-11-15T03:11:18;11.90;99.90
13591;DHT22;6866;50.778;7.206;2022-11-15T03:16:39;12.00;99.90
13591;DHT22;6866;50.778;7.206;2022-11-15T03:19:22;12.00;99.90
13591;DHT22;6866;50.778;7.206;2022-11-15T03:21:52;12.10;99.90
13591;DHT22;6866;50.778;7.206;2022-11-15T03:24:20;12.10;99.90
13591;DHT22;6866;50.778;7.206;2022-11-15T03:26:48;12.10;99.90
13591;DHT22;6866;50.778;7.206;2022-11-15T03:29:22;12.10;99.90
13591;DHT22;6866;50.778;7.206;2022-11-15T03:31:58;12.10;99.90
13591;DHT22;6866;50.778;7.206;2022-11-15T03:34:29;12.20;99.90
13591;DHT22;6866;50.778;7.206;2022-11-15T03:36:56;12.20;99.90
13591;DHT22;6866;50.778;7.206;2022-11-15T03:39:22;12.20;99.90
13591;DHT22;6866;50.778;7.206;2022-11-15T03:42:02;12.30;99.90
13591;DHT22;6866;50.778;7.206;2022-11-15T03:45:02;12.20;99.90
13591;DHT22;6866;50.778;7.206;2022-11-15T03:47:50;12.30;99.90
13591;DHT22;6866;50.778;7.206;2022-11-15T03:50:21;12.30;99.90
13591;DHT22;6866;50.778;7.206;2022-11-15T03:52:48;12.30;99.90
13591;DHT22;6866;50.778;7.206;2022-11-15T03:55:17;12.20;99.90
13591;DHT22;6866;50.778;7.206;2022-11-15T03:57:43;12.30;99.90
13591;DHT22;6866;50.778;7.206;2022-11-15T04:00:10;12.30;99.90
13591;DHT22;6866;50.778;7.206;2022-11-15T04:02:36;12.30;99.90
13591;DHT22;6866;50.778;7.206;2022-11-15T04:05:01;12.40;99.90
13591;DHT22;6866;50.778;7.206;2022-11-15T04:07:27;12.40;99.90
13591;DHT22;6866;50.778;7.206;2022-11-15T04:09:53;12.40;99.90
13591;DHT22;6866;50.778;7.206;2022-11-15T04:12:27;12.40;99.90
13591;DHT22;6866;50.778;7.206;2022-11-15T04:15:01;12.40;99.90
13591;DHT22;6866;50.778;7.206;2022-11-15T04:17:34;12.30;99.90
13591;DHT22;6866;50.778;7.206;2022-11-15T04:19:59;12.40;99.90
13591;DHT22;6866;50.778;7.206;2022-11-15T04:22:44;12.30;99.90
13591;DHT22;6866;50.778;7.206;2022-11-15T04:25:29;12.30;99.90
13591;DHT22;6866;50.778;7.206;2022-11-15T04:27:54;12.20;99.90
13591;DHT22;6866;50.778;7.206;2022-11-15T04:30:20;12.10;99.90
13591;DHT22;6866;50.778;7.206;2022-11-15T04:32:45;12.10;99.90
13591;DHT22;6866;50.778;7.206;2022-11-15T04:35:11;12.10;99.90
13591;DHT22;6866;50.778;7.206;2022-11-15T04:37:37;12.20;99.90
13591;DHT22;6866;50.778;7.206;2022-11-15T04:40:02;12.00;99.90
13591;DHT22;6866;50.778;7.206;2022-11-15T04:42:28;12.00;99.90
13591;DHT22;6866;50.778;7.206;2022-11-15T04:44:53;11.90;99.90
13591;DHT22;6866;50.778;7.206;2022-11-15T04:47:19;11.90;99.90
13591;DHT22;6866;50.778;7.206;2022-11-15T04:49:45;11.90;99.90
13591;DHT22;6866;50.778;7.206;2022-11-15T04:52:10;11.90;99.90
13591;DHT22;6866;50.778;7.206;2022-11-15T04:54:36;11.90;99.90
13591;DHT22;6866;50.778;7.206;2022-11-15T04:57:01;12.00;99.90
13591;DHT22;6866;50.778;7.206;2022-11-15T04:59:27;12.00;99.90
13591;DHT22;6866;50.778;7.206;2022-11-15T05:01:52;12.00;99.90
13591;DHT22;6866;50.778;7.206;2022-11-15T05:04:18;12.00;99.90
13591;DHT22;6866;50.778;7.206;2022-11-15T05:06:50;12.00;99.90
13591;DHT22;6866;50.778;7.206;2022-11-15T05:09:17;12.00;99.90
13591;DHT22;6866;50.778;7.206;2022-11-15T05:11:43;12.00;99.90
13591;DHT22;6866;50.778;7.206;2022-11-15T05:14:09;12.00;99.90
13591;DHT22;6866;50.778;7.206;2022-11-15T05:16:35;12.10;99.90
13591;DHT22;6866;50.778;7.206;2022-11-15T05:19:01;12.00;99.90
13591;DHT22;6866;50.778;7.206;2022-11-15T05:21:26;12.10;99.90
13591;DHT22;6866;50.778;7.206;2022-11-15T05:23:52;12.10;99.90
13591;DHT22;6866;50.778;7.206;2022-11-15T05:26:18;12.10;99.90
13591;DHT22;6866;50.778;7.206;2022-11-15T05:28:44;12.20;99.90
13591;DHT22;6866;50.778;7.206;2022-11-15T05:31:12;12.10;99.90
13591;DHT22;6866;50.778;7.206;2022-11-15T05:33:39;12.10;99.90
13591;DHT22;6866;50.778;7.206;2022-11-15T05:38:47;11.80;99.90
13591;DHT22;6866;50.778;7.206;2022-11-15T05:41:16;11.90;99.90
13591;DHT22;6866;50.778;7.206;2022-11-15T05:43:42;11.90;99.90
13591;DHT22;6866;50.778;7.206;2022-11-15T05:46:08;11.80;99.90
13591;DHT22;6866;50.778;7.206;2022-11-15T05:48:34;11.80;99.90
13591;DHT22;6866;50.778;7.206;2022-11-15T05:51:02;11.90;99.90
13591;DHT22;6866;50.778;7.206;2022-11-15T05:53:30;11.80;99.90
13591;DHT22;6866;50.778;7.206;2022-11-15T05:55:56;11.80;99.90
13591;DHT22;6866;50.778;7.206;2022-11-15T05:58:21;11.70;99.90
13591;DHT22;6866;50.778;7.206;2022-11-15T06:00:47;11.70;99.90
13591;DHT22;6866;50.778;7.206;2022-11-15T06:03:13;11.70;99.90
13591;DHT22;6866;50.778;7.206;2022-11-15T06:05:39;11.60;99.90
13591;DHT22;6866;50.778;7.206;2022-11-15T06:08:05;11.60;99.90
13591;DHT22;6866;50.778;7.206;2022-11-15T06:10:30;11.60;99.90
13591;DHT22;6866;50.778;7.206;2022-11-15T06:13:01;11.50;99.90
13591;DHT22;6866;50.778;7.206;2022-11-15T06:15:27;11.50;99.90
13591;DHT22;6866;50.778;7.206;2022-11-15T06:17:56;11.40;99.90
13591;DHT22;6866;50.778;7.206;2022-11-15T06:20:23;11.40;99.90
13591;DHT22;6866;50.778;7.206;2022-11-15T06:22:49;11.40;99.90
13591;DHT22;6866;50.778;7.206;2022-11-15T06:25:14;11.30;99.90
13591;DHT22;6866;50.778;7.206;2022-11-15T06:27:40;11.30;99.90
13591;DHT22;6866;50.778;7.206;2022-11-15T06:30:06;11.40;99.90
13591;DHT22;6866;50.778;7.206;2022-11-15T06:32:32;11.40;99.90
13591;DHT22;6866;50.778;7.206;2022-11-15T06:34:57;11.40;99.90
13591;DHT22;6866;50.778;7.206;2022-11-15T06:37:23;11.40;99.90
13591;DHT22;6866;50.778;7.206;2022-11-15T06:39:48;11.40;99.90
13591;DHT22;6866;50.778;7.206;2022-11-15T06:42:14;11.40;99.90
13591;DHT22;6866;50.778;7.206;2022-11-15T06:44:39;11.40;99.90
13591;DHT22;6866;50.778;7.206;2022-11-15T06:47:05;11.40;99.90
13591;DHT22;6866;50.778;7.206;2022-11-15T06:49:30;11.30;99.90
13591;DHT22;6866;50.778;7.206;2022-11-15T06:51:56;11.30;99.90
13591;DHT22;6866;50.778;7.206;2022-11-15T06:54:21;11.30;99.90
13591;DHT22;6866;50.778;7.206;2022-11-15T06:56:47;11.30;99.90
13591;DHT22;6866;50.778;7.206;2022-11-15T06:59:13;11.30;99.90
13591;DHT22;6866;50.778;7.206;2022-11-15T07:01:38;11.30;99.90
13591;DHT22;6866;50.778;7.206;2022-11-15T07:04:04;11.40;99.90
13591;DHT22;6866;50.778;7.206;2022-11-15T07:06:29;11.30;99.90
13591;DHT22;6866;50.778;7.206;2022-11-15T07:08:55;11.30;99.90
13591;DHT22;6866;50.778;7.206;2022-11-15T07:11:20;11.30;99.90
13591;DHT22;6866;50.778;7.206;2022-11-15T07:13:46;11.40;99.90
13591;DHT22;6866;50.778;7.206;2022-11-15T07:16:11;11.40;99.90
13591;DHT22;6866;50.778;7.206;2022-11-15T07:18:38;11.40;99.90
13591;DHT22;6866;50.778;7.206;2022-11-15T07:21:07;11.30;99.90
13591;DHT22;6866;50.778;7.206;2022-11-15T07:23:33;11.30;99.90
13591;DHT22;6866;50.778;7.206;2022-11-15T07:25:58;11.40;99.90
13591;DHT22;6866;50.778;7.206;2022-11-15T07:28:28;11.40;99.90
13591;DHT22;6866;50.778;7.206;2022-11-15T07:30:54;11.50;99.90
13591;DHT22;6866;50.778;7.206;2022-11-15T07:33:19;11.50;99.90
13591;DHT22;6866;50.778;7.206;2022-11-15T07:35:45;11.60;99.90
13591;DHT22;6866;50.778;7.206;2022-11-15T07:38:13;11.70;99.90
13591;DHT22;6866;50.778;7.206;2022-11-15T07:40:40;11.80;99.90
13591;DHT22;6866;50.778;7.206;2022-11-15T07:43:06;11.80;99.90
13591;DHT22;6866;50.778;7.206;2022-11-15T07:45:32;11.90;99.90
13591;DHT22;6866;50.778;7.206;2022-11-15T07:48:01;12.00;99.90
13591;DHT22;6866;50.778;7.206;2022-11-15T07:50:27;12.10;99.90
13591;DHT22;6866;50.778;7.206;2022-11-15T07:52:56;12.60;99.90
13591;DHT22;6866;50.778;7.206;2022-11-15T07:55:22;12.90;99.90
13591;DHT22;6866;50.778;7.206;2022-11-15T07:57:49;13.50;99.90
13591;DHT22;6866;50.778;7.206;2022-11-15T08:00:15;14.10;98.30
13591;DHT22;6866;50.778;7.206;2022-11-15T08:02:40;14.40;97.50
13591;DHT22;6866;50.778;7.206;2022-11-15T08:05:06;14.40;97.70
13591;DHT22;6866;50.778;7.206;2022-11-15T08:07:32;14.60;96.80
13591;DHT22;6866;50.778;7.206;2022-11-15T08:09:58;14.80;95.80
13591;DHT22;6866;50.778;7.206;2022-11-15T08:12:24;14.80;95.10
13591;DHT22;6866;50.778;7.206;2022-11-15T08:14:50;14.60;95.40
13591;DHT22;6866;50.778;7.206;2022-11-15T08:17:15;14.30;96.20
13591;DHT22;6866;50.778;7.206;2022-11-15T08:19:41;14.20;96.50
13591;DHT22;6866;50.778;7.206;2022-11-15T08:22:07;14.50;96.80
13591;DHT22;6866;50.778;7.206;2022-11-15T08:24:32;14.20;97.30
13591;DHT22;6866;50.778;7.206;2022-11-15T08:26:59;14.50;96.90
13591;DHT22;6866;50.778;7.206;2022-11-15T08:29:25;14.30;96.10
13591;DHT22;6866;50.778;7.206;2022-11-15T08:31:51;14.60;95.50
13591;DHT22;6866;50.778;7.206;2022-11-15T08:34:19;14.70;94.70
13591;DHT22;6866;50.778;7.206;2022-11-15T08:36:45;14.90;94.30
13591;DHT22;6866;50.778;7.206;2022-11-15T08:39:11;14.80;94.80
13591;DHT22;6866;50.778;7.206;2022-11-15T08:41:38;14.70;94.60
13591;DHT22;6866;50.778;7.206;2022-11-15T08:44:03;14.80;93.70
13591;DHT22;6866;50.778;7.206;2022-11-15T08:46:29;14.60;93.00
13591;DHT22;6866;50.778;7.206;2022-11-15T08:48:54;14.70;94.30
13591;DHT22;6866;50.778;7.206;2022-11-15T08:51:20;14.80;93.60
13591;DHT22;6866;50.778;7.206;2022-11-15T08:53:45;14.80;92.00
13591;DHT22;6866;50.778;7.206;2022-11-15T08:56:13;15.20;91.40
13591;DHT22;6866;50.778;7.206;2022-11-15T08:58:39;15.80;87.40
13591;DHT22;6866;50.778;7.206;2022-11-15T09:01:05;16.20;84.70
13591;DHT22;6866;50.778;7.206;2022-11-15T09:03:30;16.20;82.80
13591;DHT22;6866;50.778;7.206;2022-11-15T09:05:57;16.30;84.20
13591;DHT22;6866;50.778;7.206;2022-11-15T09:08:24;16.40;81.90
13591;DHT22;6866;50.778;7.206;2022-11-15T09:10:50;16.10;81.40
13591;DHT22;6866;50.778;7.206;2022-11-15T09:13:16;16.30;80.90
13591;DHT22;6866;50.778;7.206;2022-11-15T09:15:42;16.80;78.50
13591;DHT22;6866;50.778;7.206;2022-11-15T09:18:08;16.50;75.70
13591;DHT22;6866;50.778;7.206;2022-11-15T09:20:34;16.30;76.80
13591;DHT22;6866;50.778;7.206;2022-11-15T09:23:03;16.30;76.50
13591;DHT22;6866;50.778;7.206;2022-11-15T09:25:30;16.20;78.00
13591;DHT22;6866;50.778;7.206;2022-11-15T09:27:57;16.70;75.60
13591;DHT22;6866;50.778;7.206;2022-11-15T09:30:24;16.60;75.80
13591;DHT22;6866;50.778;7.206;2022-11-15T09:32:49;16.80;74.00
13591;DHT22;6866;50.778;7.206;2022-11-15T09:35:15;17.40;70.50
13591;DHT22;6866;50.778;7.206;2022-11-15T09:37:41;17.80;67.20
13591;DHT22;6866;50.778;7.206;2022-11-15T09:40:11;17.30;65.00
13591;DHT22;6866;50.778;7.206;2022-11-15T09:43:02;17.90;66.50
13591;DHT22;6866;50.778;7.206;2022-11-15T09:45:38;18.20;63.90
13591;DHT22;6866;50.778;7.206;2022-11-15T09:48:18;18.50;62.60
13591;DHT22;6866;50.778;7.206;2022-11-15T09:50:49;18.10;61.60
13591;DHT22;6866;50.778;7.206;2022-11-15T09:53:26;17.70;63.50
13591;DHT22;6866;50.778;7.206;2022-11-15T09:56:05;17.70;64.90
13591;DHT22;6866;50.778;7.206;2022-11-15T10:04:33;17.40;64.00
13591;DHT22;6866;50.778;7.206;2022-11-15T10:07:16;17.50;63.30
13591;DHT22;6866;50.778;7.206;2022-11-15T10:09:50;17.10;62.80
13591;DHT22;6866;50.778;7.206;2022-11-15T10:12:17;17.00;63.30
13591;DHT22;6866;50.778;7.206;2022-11-15T10:14:43;17.00;63.70
13591;DHT22;6866;50.778;7.206;2022-11-15T10:19:56;17.20;64.00
13591;DHT22;6866;50.778;7.206;2022-11-15T10:22:48;17.10;62.80
13591;DHT22;6866;50.778;7.206;2022-11-15T10:25:26;16.60;63.60
13591;DHT22;6866;50.778;7.206;2022-11-15T10:30:20;16.40;65.00
13591;DHT22;6866;50.778;7.206;2022-11-15T10:32:47;16.40;64.10
13591;DHT22;6866;50.778;7.206;2022-11-15T10:35:28;16.10;65.30
13591;DHT22;6866;50.778;7.206;2022-11-15T10:38:10;15.90;65.00
13591;DHT22;6866;50.778;7.206;2022-11-15T10:40:37;16.00;65.20
13591;DHT22;6866;50.778;7.206;2022-11-15T10:43:15;16.10;64.90
13591;DHT22;6866;50.778;7.206;2022-11-15T10:45:41;16.10;64.90
13591;DHT22;6866;50.778;7.206;2022-11-15T10:50:43;15.90;63.40
13591;DHT22;6866;50.778;7.206;2022-11-15T10:56:21;15.50;63.20
13591;DHT22;6866;50.778;7.206;2022-11-15T10:58:56;15.60;65.40
13591;DHT22;6866;50.778;7.206;2022-11-15T11:01:25;15.70;64.50
13591;DHT22;6866;50.778;7.206;2022-11-15T11:04:08;15.30;64.00
13591;DHT22;6866;50.778;7.206;2022-11-15T11:06:51;15.50;64.90
13591;DHT22;6866;50.778;7.206;2022-11-15T11:09:35;15.60;65.90
13591;DHT22;6866;50.778;7.206;2022-11-15T11:12:01;15.60;65.60
13591;DHT22;6866;50.778;7.206;2022-11-15T11:14:32;15.70;64.30
13591;DHT22;6866;50.778;7.206;2022-11-15T11:19:58;15.60;65.30
13591;DHT22;6866;50.778;7.206;2022-11-15T11:22:38;15.50;66.20
13591;DHT22;6866;50.778;7.206;2022-11-15T11:25:19;15.20;67.10
13591;DHT22;6866;50.778;7.206;2022-11-15T11:28:53;15.40;68.00
13591;DHT22;6866;50.778;7.206;2022-11-15T11:36:39;15.20;66.90
13591;DHT22;6866;50.778;7.206;2022-11-15T11:40:16;15.20;66.70
13591;DHT22;6866;50.778;7.206;2022-11-15T11:42:48;15.20;67.40
13591;DHT22;6866;50.778;7.206;2022-11-15T11:45:21;15.20;68.20
13591;DHT22;6866;50.778;7.206;2022-11-15T11:50:37;15.40;69.00
13591;DHT22;6866;50.778;7.206;2022-11-15T11:53:11;15.30;70.20
13591;DHT22;6866;50.778;7.206;2022-11-15T11:55:46;15.30;70.10
13591;DHT22;6866;50.778;7.206;2022-11-15T11:58:38;15.30;70.70
13591;DHT22;6866;50.778;7.206;2022-11-15T12:01:16;15.50;70.70
13591;DHT22;6866;50.778;7.206;2022-11-15T12:06:49;15.30;72.10
13591;DHT22;6866;50.778;7.206;2022-11-15T12:09:30;15.10;73.60
13591;DHT22;6866;50.778;7.206;2022-11-15T12:15:17;15.20;74.80
13591;DHT22;6866;50.778;7.206;2022-11-15T12:17:44;15.20;74.50
13591;DHT22;6866;50.778;7.206;2022-11-15T12:20:26;15.10;74.70
13591;DHT22;6866;50.778;7.206;2022-11-15T12:23:00;15.00;74.50
13591;DHT22;6866;50.778;7.206;2022-11-15T12:28:58;15.30;75.30
13591;DHT22;6866;50.778;7.206;2022-11-15T12:33:41;15.30;75.40
13591;DHT22;6866;50.778;7.206;2022-11-15T12:39:08;15.10;75.70
13591;DHT22;6866;50.778;7.206;2022-11-15T12:41:36;15.00;76.40
13591;DHT22;6866;50.778;7.206;2022-11-15T12:44:03;15.00;76.10
13591;DHT22;6866;50.778;7.206;2022-11-15T12:48:57;15.20;76.70
13591;DHT22;6866;50.778;7.206;2022-11-15T12:59:55;15.20;77.50
13591;DHT22;6866;50.778;7.206;2022-11-15T13:04:54;15.30;76.60
13591;DHT22;6866;50.778;7.206;2022-11-15T13:10:01;15.10;77.60
13591;DHT22;6866;50.778;7.206;2022-11-15T13:14:57;15.10;77.60
13591;DHT22;6866;50.778;7.206;2022-11-15T13:17:32;15.00;78.60
13591;DHT22;6866;50.778;7.206;2022-11-15T13:22:40;15.20;78.00
13591;DHT22;6866;50.778;7.206;2022-11-15T13:30:53;15.30;78.20
13591;DHT22;6866;50.778;7.206;2022-11-15T13:33:24;15.20;78.50
13591;DHT22;6866;50.778;7.206;2022-11-15T13:35:52;15.20;78.50
13591;DHT22;6866;50.778;7.206;2022-11-15T13:38:27;15.20;79.20
13591;DHT22;6866;50.778;7.206;2022-11-15T13:40:53;15.20;78.90
13591;DHT22;6866;50.778;7.206;2022-11-15T13:48:31;15.00;80.40
13591;DHT22;6866;50.778;7.206;2022-11-15T13:50:59;15.00;80.40
13591;DHT22;6866;50.778;7.206;2022-11-15T13:53:25;15.00;80.80
13591;DHT22;6866;50.778;7.206;2022-11-15T13:55:52;14.90;81.00
13591;DHT22;6866;50.778;7.206;2022-11-15T13:58:19;14.90;81.20
13591;DHT22;6866;50.778;7.206;2022-11-15T14:00:45;14.90;81.60
13591;DHT22;6866;50.778;7.206;2022-11-15T14:03:24;14.90;81.30
13591;DHT22;6866;50.778;7.206;2022-11-15T14:08:42;14.90;82.40
13591;DHT22;6866;50.778;7.206;2022-11-15T14:11:22;14.80;81.30
13591;DHT22;6866;50.778;7.206;2022-11-15T14:16:39;14.80;81.50
13591;DHT22;6866;50.778;7.206;2022-11-15T14:19:08;14.90;82.30
13591;DHT22;6866;50.778;7.206;2022-11-15T14:21:34;14.90;81.70
13591;DHT22;6866;50.778;7.206;2022-11-15T14:24:19;14.90;81.60
13591;DHT22;6866;50.778;7.206;2022-11-15T14:26:45;14.90;81.20
13591;DHT22;6866;50.778;7.206;2022-11-15T14:31:49;14.90;81.30
13591;DHT22;6866;50.778;7.206;2022-11-15T14:34:14;14.90;81.30
13591;DHT22;6866;50.778;7.206;2022-11-15T14:36:40;14.90;81.60
13591;DHT22;6866;50.778;7.206;2022-11-15T14:39:05;14.90;81.60
13591;DHT22;6866;50.778;7.206;2022-11-15T14:41:35;14.90;82.20
13591;DHT22;6866;50.778;7.206;2022-11-15T14:44:03;14.90;82.50
13591;DHT22;6866;50.778;7.206;2022-11-15T14:46:29;14.80;82.90
13591;DHT22;6866;50.778;7.206;2022-11-15T14:48:54;14.80;83.10
13591;DHT22;6866;50.778;7.206;2022-11-15T14:51:20;14.70;83.70
13591;DHT22;6866;50.778;7.206;2022-11-15T14:53:46;14.70;83.90
13591;DHT22;6866;50.778;7.206;2022-11-15T14:56:12;14.70;84.30
13591;DHT22;6866;50.778;7.206;2022-11-15T14:58:38;14.70;84.50
13591;DHT22;6866;50.778;7.206;2022-11-15T15:01:20;14.70;85.10
13591;DHT22;6866;50.778;7.206;2022-11-15T15:03:46;14.70;85.00
13591;DHT22;6866;50.778;7.206;2022-11-15T15:06:12;14.70;85.10
13591;DHT22;6866;50.778;7.206;2022-11-15T15:08:39;14.60;86.00
13591;DHT22;6866;50.778;7.206;2022-11-15T15:11:13;14.60;86.70
13591;DHT22;6866;50.778;7.206;2022-11-15T15:13:39;14.60;86.60
13591;DHT22;6866;50.778;7.206;2022-11-15T15:16:05;14.60;86.90
13591;DHT22;6866;50.778;7.206;2022-11-15T15:18:31;14.50;87.10
13591;DHT22;6866;50.778;7.206;2022-11-15T15:20:58;14.50;87.70
13591;DHT22;6866;50.778;7.206;2022-11-15T15:23:32;14.50;88.40
13591;DHT22;6866;50.778;7.206;2022-11-15T15:25:58;14.50;87.20
13591;DHT22;6866;50.778;7.206;2022-11-15T15:28:24;14.50;87.50
13591;DHT22;6866;50.778;7.206;2022-11-15T15:30:49;14.50;87.80
13591;DHT22;6866;50.778;7.206;2022-11-15T15:33:15;14.50;88.30
13591;DHT22;6866;50.778;7.206;2022-11-15T15:35:41;14.40;88.30
13591;DHT22;6866;50.778;7.206;2022-11-15T15:38:12;14.40;88.80
13591;DHT22;6866;50.778;7.206;2022-11-15T15:40:38;14.40;88.70
13591;DHT22;6866;50.778;7.206;2022-11-15T15:43:03;14.30;89.20
13591;DHT22;6866;50.778;7.206;2022-11-15T15:45:29;14.30;89.70
13591;DHT22;6866;50.778;7.206;2022-11-15T15:47:56;14.30;90.00
13591;DHT22;6866;50.778;7.206;2022-11-15T15:50:24;14.20;90.30
13591;DHT22;6866;50.778;7.206;2022-11-15T15:52:51;14.20;90.40
13591;DHT22;6866;50.778;7.206;2022-11-15T15:55:17;14.20;90.40
13591;DHT22;6866;50.778;7.206;2022-11-15T15:57:42;14.10;90.50
13591;DHT22;6866;50.778;7.206;2022-11-15T16:00:09;14.10;90.80
13591;DHT22;6866;50.778;7.206;2022-11-15T16:02:35;14.10;90.70
13591;DHT22;6866;50.778;7.206;2022-11-15T16:05:00;14.10;91.00
13591;DHT22;6866;50.778;7.206;2022-11-15T16:07:26;14.10;91.00
13591;DHT22;6866;50.778;7.206;2022-11-15T16:09:54;14.10;91.10
13591;DHT22;6866;50.778;7.206;2022-11-15T16:12:29;14.10;91.00
13591;DHT22;6866;50.778;7.206;2022-11-15T16:14:54;14.10;91.10
13591;DHT22;6866;50.778;7.206;2022-11-15T16:17:26;14.10;91.20
13591;DHT22;6866;50.778;7.206;2022-11-15T16:19:52;14.10;91.30
13591;DHT22;6866;50.778;7.206;2022-11-15T16:22:17;14.10;91.30
13591;DHT22;6866;50.778;7.206;2022-11-15T16:24:43;14.10;91.30
13591;DHT22;6866;50.778;7.206;2022-11-15T16:27:20;14.10;91.30
13591;DHT22;6866;50.778;7.206;2022-11-15T16:29:46;14.00;91.60
13591;DHT22;6866;50.778;7.206;2022-11-15T16:32:14;14.00;91.60
13591;DHT22;6866;50.778;7.206;2022-11-15T16:34:40;14.00;91.60
13591;DHT22;6866;50.778;7.206;2022-11-15T16:37:16;14.00;91.60
13591;DHT22;6866;50.778;7.206;2022-11-15T16:39:46;14.10;91.50
13591;DHT22;6866;50.778;7.206;2022-11-15T16:42:11;14.00;91.70
13591;DHT22;6866;50.778;7.206;2022-11-15T16:44:37;14.00;91.90
13591;DHT22;6866;50.778;7.206;2022-11-15T16:47:02;14.00;92.00
13591;DHT22;6866;50.778;7.206;2022-11-15T16:49:28;14.10;91.80
13591;DHT22;6866;50.778;7.206;2022-11-15T16:51:53;14.00;92.00
13591;DHT22;6866;50.778;7.206;2022-11-15T16:54:19;14.00;92.00
13591;DHT22;6866;50.778;7.206;2022-11-15T16:56:44;14.00;92.10
13591;DHT22;6866;50.778;7.206;2022-11-15T16:59:15;14.00;92.20
13591;DHT22;6866;50.778;7.206;2022-11-15T17:01:42;14.00;92.30
13591;DHT22;6866;50.778;7.206;2022-11-15T17:04:18;14.00;92.40
13591;DHT22;6866;50.778;7.206;2022-11-15T17:06:45;14.00;92.40
13591;DHT22;6866;50.778;7.206;2022-11-15T17:09:18;14.00;92.40
13591;DHT22;6866;50.778;7.206;2022-11-15T17:11:45;14.00;92.60
13591;DHT22;6866;50.778;7.206;2022-11-15T17:14:11;14.00;92.80
13591;DHT22;6866;50.778;7.206;2022-11-15T17:16:37;14.00;92.90
13591;DHT22;6866;50.778;7.206;2022-11-15T17:19:14;14.00;93.10
13591;DHT22;6866;50.778;7.206;2022-11-15T17:21:40;14.00;93.10
13591;DHT22;6866;50.778;7.206;2022-11-15T17:24:06;14.00;93.30
13591;DHT22;6866;50.778;7.206;2022-11-15T17:26:31;14.00;93.50
13591;DHT22;6866;50.778;7.206;2022-11-15T17:28:57;14.00;93.50
13591;DHT22;6866;50.778;7.206;2022-11-15T17:31:23;13.90;93.70
13591;DHT22;6866;50.778;7.206;2022-11-15T17:33:49;13.90;94.00
13591;DHT22;6866;50.778;7.206;2022-11-15T17:36:15;13.90;94.20
13591;DHT22;6866;50.778;7.206;2022-11-15T17:38:41;13.90;94.40
13591;DHT22;6866;50.778;7.206;2022-11-15T17:41:11;13.90;94.60
13591;DHT22;6866;50.778;7.206;2022-11-15T17:43:37;13.90;94.70
13591;DHT22;6866;50.778;7.206;2022-11-15T17:46:14;13.80;95.00
13591;DHT22;6866;50.778;7.206;2022-11-15T17:48:40;13.80;95.30
13591;DHT22;6866;50.778;7.206;2022-11-15T17:51:09;13.70;95.70
13591;DHT22;6866;50.778;7.206;2022-11-15T17:53:38;13.70;96.30